createdAt,value
2019-02-28T00:00:11.704Z,57.50
2019-02-28T00:02:40.372Z,56.20
2019-02-28T00:05:09.116Z,55.40
2019-02-28T00:07:37.666Z,55.00
2019-02-28T00:10:08.079Z,54.90
2019-02-28T00:12:36.979Z,54.90
2019-02-28T00:15:09.591Z,55.00
2019-02-28T00:17:42.555Z,55.10
2019-02-28T00:20:09.578Z,55.40
2019-02-28T00:22:38.197Z,55.10
2019-02-28T00:25:09.577Z,54.70
2019-02-28T00:27:38.152Z,53.70
2019-02-28T00:30:14.964Z,53.10
2019-02-28T00:32:43.610Z,52.70
2019-02-28T00:35:13.463Z,52.60
2019-02-28T00:37:42.711Z,52.30
2019-02-28T00:40:11.653Z,51.50
2019-02-28T00:42:40.223Z,51.20
2019-02-28T00:45:15.864Z,50.30
2019-02-28T00:47:47.549Z,50.50
2019-02-28T00:50:14.812Z,51.60
2019-02-28T00:52:43.396Z,52.30
2019-02-28T00:55:14.552Z,53.00
2019-02-28T00:57:43.764Z,53.30
2019-02-28T01:00:23.316Z,53.30
2019-02-28T01:02:53.509Z,53.30
2019-02-28T01:05:22.289Z,53.80
2019-02-28T01:07:50.989Z,54.20
2019-02-28T01:10:19.624Z,54.50
2019-02-28T01:12:53.056Z,55.00
2019-02-28T01:15:18.640Z,55.20
2019-02-28T01:17:47.380Z,55.40
2019-02-28T01:20:16.768Z,55.30
2019-02-28T01:22:45.369Z,55.20
2019-02-28T01:25:20.348Z,55.00
2019-02-28T01:27:48.911Z,55.90
2019-02-28T01:30:17.800Z,56.30
2019-02-28T01:32:49.995Z,56.50
2019-02-28T01:35:16.791Z,56.60
2019-02-28T01:37:45.369Z,56.50
2019-02-28T01:40:15.261Z,56.20
2019-02-28T01:42:43.913Z,56.00
2019-02-28T01:45:13.400Z,55.90
2019-02-28T01:47:42.332Z,55.90
2019-02-28T01:50:12.428Z,56.00
2019-02-28T01:52:45.728Z,56.20
2019-02-28T01:55:12.217Z,56.30
2019-02-28T01:57:44.021Z,56.20
2019-02-28T02:00:16.194Z,56.00
2019-02-28T02:02:44.937Z,55.50
2019-02-28T02:05:17.025Z,55.60
2019-02-28T02:07:44.084Z,55.10
2019-02-28T02:10:20.298Z,54.90
2019-02-28T02:12:47.388Z,55.00
2019-02-28T02:15:16.864Z,55.40
2019-02-28T02:17:46.262Z,55.40
2019-02-28T02:20:15.672Z,55.60
2019-02-28T02:22:45.254Z,55.20
2019-02-28T02:25:14.257Z,55.50
2019-02-28T02:27:42.859Z,55.90
2019-02-28T02:30:15.984Z,56.30
2019-02-28T02:32:44.815Z,56.00
2019-02-28T02:35:13.461Z,55.50
2019-02-28T02:37:42.030Z,54.80
2019-02-28T02:40:13.345Z,54.00
2019-02-28T02:42:47.279Z,53.00
2019-02-28T02:45:14.534Z,51.90
2019-02-28T02:47:43.124Z,52.30
2019-02-28T02:50:13.889Z,52.10
2019-02-28T02:52:42.611Z,52.00
2019-02-28T02:55:11.403Z,51.90
2019-02-28T02:57:40.056Z,51.40
2019-02-28T03:00:15.213Z,51.30
2019-02-28T03:02:44.113Z,51.40
2019-02-28T03:05:13.203Z,50.00
2019-02-28T03:07:41.933Z,49.70
2019-02-28T03:10:17.506Z,49.30
2019-02-28T03:12:44.039Z,49.00
2019-02-28T03:15:15.449Z,48.70
2019-02-28T03:17:47.341Z,49.20
2019-02-28T03:20:15.224Z,48.30
2019-02-28T03:22:43.775Z,48.20
2019-02-28T03:25:13.990Z,48.30
2019-02-28T03:27:42.539Z,47.60
2019-02-28T03:30:25.762Z,46.90
2019-02-28T03:32:44.354Z,46.90
2019-02-28T03:35:12.926Z,46.50
2019-02-28T03:37:41.493Z,46.40
2019-02-28T03:40:14.405Z,46.30
2019-02-28T03:42:43.019Z,46.40
2019-02-28T03:45:14.021Z,46.40
2019-02-28T03:47:42.703Z,46.00
2019-02-28T03:50:11.909Z,46.20
2019-02-28T03:52:44.078Z,46.20
2019-02-28T03:55:14.443Z,46.00
2019-02-28T03:57:43.340Z,46.00
2019-02-28T04:00:14.974Z,46.10
2019-02-28T04:02:43.571Z,46.00
2019-02-28T04:05:12.461Z,46.00
2019-02-28T04:07:41.043Z,46.20
2019-02-28T04:10:11.753Z,46.00
2019-02-28T04:12:44.929Z,45.90
2019-02-28T04:15:13.685Z,46.00
2019-02-28T04:17:42.456Z,46.20
2019-02-28T04:20:11.089Z,46.20
2019-02-28T04:22:39.672Z,46.50
2019-02-28T04:25:09.688Z,46.20
2019-02-28T04:27:40.459Z,46.30
2019-02-28T04:30:13.210Z,46.40
2019-02-28T04:32:41.832Z,46.60
2019-02-28T04:35:10.858Z,47.50
2019-02-28T04:37:44.651Z,46.70
2019-02-28T04:40:11.496Z,46.70
2019-02-28T04:42:40.156Z,46.70
2019-02-28T04:45:13.672Z,46.60
2019-02-28T04:47:42.236Z,46.60
2019-02-28T04:50:11.890Z,46.80
2019-02-28T04:52:46.521Z,46.80
2019-02-28T04:55:12.489Z,46.70
2019-02-28T04:57:41.039Z,46.70
2019-02-28T05:00:12.718Z,46.70
2019-02-28T05:02:41.676Z,46.70
2019-02-28T05:05:12.633Z,46.80
2019-02-28T05:07:41.272Z,46.70
2019-02-28T05:10:10.773Z,47.00
2019-02-28T05:12:40.840Z,47.00
2019-02-28T05:15:11.971Z,46.80
2019-02-28T05:17:40.549Z,46.80
2019-02-28T05:20:11.902Z,46.80
2019-02-28T05:22:40.881Z,46.70
2019-02-28T05:25:11.023Z,46.50
2019-02-28T05:27:40.492Z,46.60
2019-02-28T05:30:18.145Z,46.50
2019-02-28T05:32:44.953Z,46.40
2019-02-28T05:35:13.585Z,46.60
2019-02-28T05:37:46.990Z,46.50
2019-02-28T05:40:15.603Z,46.60
2019-02-28T05:42:44.231Z,46.70
2019-02-28T05:45:14.571Z,46.90
2019-02-28T05:47:46.780Z,47.00
2019-02-28T05:50:16.764Z,47.20
2019-02-28T05:52:45.151Z,47.50
2019-02-28T05:55:13.854Z,47.70
2019-02-28T05:57:44.791Z,47.80
2019-02-28T06:00:16.379Z,48.70
2019-02-28T06:02:44.959Z,48.20
2019-02-28T06:05:13.616Z,48.40
2019-02-28T06:07:42.424Z,48.50
2019-02-28T06:10:13.369Z,49.30
2019-02-28T06:12:43.887Z,49.00
2019-02-28T06:15:16.321Z,49.20
2019-02-28T06:17:44.961Z,49.10
2019-02-28T06:20:16.270Z,49.50
2019-02-28T06:22:44.597Z,49.60
2019-02-28T06:25:22.287Z,49.80
2019-02-28T06:27:49.046Z,50.30
2019-02-28T06:30:16.717Z,50.00
2019-02-28T06:32:45.288Z,50.20
2019-02-28T06:35:17.708Z,49.90
2019-02-28T06:37:44.184Z,48.80
2019-02-28T06:40:14.577Z,46.80
2019-02-28T06:42:43.478Z,44.40
2019-02-28T06:45:18.417Z,42.10
2019-02-28T06:47:49.682Z,39.90
2019-02-28T06:50:17.365Z,37.30
2019-02-28T06:52:46.048Z,35.10
2019-02-28T06:55:27.408Z,33.10
2019-02-28T06:57:58.962Z,31.90
2019-02-28T07:00:26.670Z,30.50
2019-02-28T07:02:55.236Z,29.70
2019-02-28T07:05:25.867Z,29.10
2019-02-28T07:07:54.024Z,28.30
2019-02-28T07:10:22.612Z,27.30
2019-02-28T07:12:51.642Z,26.70
2019-02-28T07:15:23.624Z,25.90
2019-02-28T07:17:50.511Z,25.50
2019-02-28T07:20:19.935Z,25.30
2019-02-28T07:22:51.681Z,24.90
2019-02-28T07:25:18.708Z,24.60
2019-02-28T07:27:47.276Z,24.00
2019-02-28T07:30:18.520Z,23.90
2019-02-28T07:32:47.544Z,23.70
2019-02-28T07:35:16.443Z,23.40
2019-02-28T07:37:45.031Z,22.90
2019-02-28T07:40:17.699Z,22.80
2019-02-28T07:42:46.636Z,22.30
2019-02-28T07:45:15.744Z,22.20
2019-02-28T07:47:44.464Z,22.20
2019-02-28T07:50:16.835Z,21.20
2019-02-28T07:52:45.572Z,21.10
2019-02-28T07:55:16.071Z,20.80
2019-02-28T07:57:44.727Z,21.00
2019-02-28T08:00:22.363Z,20.90
2019-02-28T08:02:51.208Z,20.80
2019-02-28T08:05:19.847Z,20.80
2019-02-28T08:07:52.098Z,20.30
2019-02-28T08:10:24.548Z,20.00
2019-02-28T08:12:53.142Z,20.10
2019-02-28T08:15:23.373Z,19.60
2019-02-28T08:17:52.080Z,19.30
2019-02-28T08:20:21.157Z,19.30
2019-02-28T08:22:49.736Z,19.60
2019-02-28T08:25:18.305Z,19.30
2019-02-28T08:27:47.288Z,18.80
2019-02-28T08:30:33.954Z,19.00
2019-02-28T08:33:02.569Z,19.00
2019-02-28T08:35:34.918Z,18.50
2019-02-28T08:38:01.471Z,18.30
2019-02-28T08:40:30.180Z,17.70
2019-02-28T08:42:58.813Z,18.10
2019-02-28T08:45:32.639Z,17.80
2019-02-28T08:47:57.679Z,17.70
2019-02-28T08:50:27.100Z,18.10
2019-02-28T08:53:04.632Z,18.00
2019-02-28T08:55:33.541Z,18.10
2019-02-28T08:58:06.021Z,18.50
2019-02-28T09:00:33.366Z,18.00
2019-02-28T09:03:02.300Z,18.10
2019-02-28T09:05:30.893Z,18.10
2019-02-28T09:07:59.456Z,17.90
2019-02-28T09:10:28.111Z,18.20
2019-02-28T09:12:56.677Z,18.20
2019-02-28T09:15:29.841Z,17.80
2019-02-28T09:17:59.369Z,17.60
2019-02-28T09:20:26.191Z,18.00
2019-02-28T09:22:54.832Z,18.60
2019-02-28T09:25:26.846Z,18.40
2019-02-28T09:27:55.235Z,18.20
2019-02-28T09:30:35.340Z,17.50
2019-02-28T09:33:03.980Z,17.30
2019-02-28T09:35:32.543Z,17.00
2019-02-28T09:38:06.428Z,17.20
2019-02-28T09:40:31.976Z,17.40
2019-02-28T09:43:00.559Z,18.10
2019-02-28T09:45:32.204Z,18.10
2019-02-28T09:48:02.140Z,18.60
2019-02-28T09:50:32.915Z,18.30
2019-02-28T09:53:01.095Z,18.30
2019-02-28T09:55:34.081Z,18.30
2019-02-28T09:57:59.898Z,18.60
2019-02-28T10:00:29.134Z,18.20
2019-02-28T10:02:57.801Z,17.60
2019-02-28T10:05:27.142Z,17.30
2019-02-28T10:08:01.485Z,17.90
2019-02-28T10:10:30.870Z,18.00
2019-02-28T10:12:59.452Z,18.10
2019-02-28T10:15:28.559Z,18.30
2019-02-28T10:17:57.319Z,18.20
2019-02-28T10:20:41.812Z,18.20
2019-02-28T10:23:10.397Z,18.10
2019-02-28T10:25:43.262Z,18.40
2019-02-28T10:28:09.268Z,18.40
2019-02-28T10:30:37.911Z,18.60
2019-02-28T10:33:06.473Z,18.70
2019-02-28T10:35:36.711Z,18.60
2019-02-28T10:38:05.416Z,18.50
2019-02-28T10:40:34.013Z,18.30
2019-02-28T10:43:02.576Z,18.70
2019-02-28T10:45:31.161Z,19.20
2019-02-28T10:48:02.930Z,19.30
2019-02-28T10:50:38.237Z,19.30
2019-02-28T10:53:06.873Z,19.20
2019-02-28T10:55:35.704Z,19.50
2019-02-28T10:58:04.712Z,19.50
2019-02-28T11:00:36.013Z,19.10
2019-02-28T11:03:04.717Z,19.50
2019-02-28T11:05:43.153Z,19.50
2019-02-28T11:08:15.842Z,19.30
2019-02-28T11:10:46.003Z,19.60
2019-02-28T11:13:19.527Z,19.50
2019-02-28T11:15:49.399Z,19.70
2019-02-28T11:18:18.305Z,20.10
2019-02-28T11:20:47.104Z,20.40
2019-02-28T11:23:16.626Z,20.80
2019-02-28T11:25:45.341Z,20.60
2019-02-28T11:28:15.180Z,19.90
2019-02-28T11:30:45.621Z,19.40
2019-02-28T11:33:14.928Z,20.10
2019-02-28T11:35:43.628Z,20.60
2019-02-28T11:38:12.551Z,22.80
2019-02-28T11:40:43.697Z,23.70
2019-02-28T11:43:11.677Z,24.00
2019-02-28T11:45:43.506Z,25.10
2019-02-28T11:48:20.720Z,25.70
2019-02-28T11:50:49.356Z,26.40
2019-02-28T11:53:19.117Z,27.30
2019-02-28T11:55:47.816Z,27.50
2019-02-28T11:58:17.840Z,28.20
2019-02-28T12:00:46.670Z,28.20
2019-02-28T12:03:15.262Z,28.30
2019-02-28T12:05:43.825Z,28.50
2019-02-28T12:08:12.436Z,28.40
2019-02-28T12:10:41.000Z,28.30
2019-02-28T12:13:10.007Z,27.60
2019-02-28T12:15:40.232Z,27.90
2019-02-28T12:18:09.242Z,27.60
2019-02-28T12:20:37.826Z,28.40
2019-02-28T12:23:06.533Z,29.40
2019-02-28T12:25:35.556Z,30.20
2019-02-28T12:28:06.663Z,30.90
2019-02-28T12:30:35.791Z,31.10
2019-02-28T12:33:04.877Z,31.00
2019-02-28T12:35:39.206Z,31.80
2019-02-28T12:38:04.504Z,32.00
2019-02-28T12:40:38.908Z,32.40
2019-02-28T12:43:12.248Z,33.30
2019-02-28T12:45:47.398Z,32.70
2019-02-28T12:48:15.964Z,33.20
2019-02-28T12:50:44.814Z,33.30
2019-02-28T12:53:13.394Z,33.80
2019-02-28T12:55:42.036Z,33.60
2019-02-28T12:58:10.631Z,33.60
2019-02-28T13:00:43.706Z,34.20
2019-02-28T13:03:12.431Z,33.90
2019-02-28T13:05:41.078Z,34.40
2019-02-28T13:08:10.013Z,34.60
2019-02-28T13:10:38.572Z,35.10
2019-02-28T13:13:07.761Z,35.70
2019-02-28T13:15:36.670Z,35.40
2019-02-28T13:18:09.158Z,35.00
2019-02-28T13:20:39.056Z,35.30
2019-02-28T13:23:07.784Z,34.30
2019-02-28T13:25:36.554Z,35.10
2019-02-28T13:28:07.407Z,35.70
2019-02-28T13:30:38.655Z,35.90
2019-02-28T13:33:11.034Z,36.40
2019-02-28T13:35:47.137Z,37.10
2019-02-28T13:38:17.632Z,37.00
2019-02-28T13:40:44.882Z,37.20
2019-02-28T13:43:19.694Z,37.90
2019-02-28T13:45:43.715Z,37.00
2019-02-28T13:48:12.301Z,37.30
2019-02-28T13:50:40.962Z,38.00
2019-02-28T13:53:18.245Z,37.60
2019-02-28T13:55:40.395Z,37.30
2019-02-28T13:58:08.951Z,37.20
2019-02-28T14:00:43.708Z,37.80
2019-02-28T14:03:11.101Z,37.60
2019-02-28T14:05:41.562Z,37.70
2019-02-28T14:08:12.210Z,37.50
2019-02-28T14:10:41.547Z,37.60
2019-02-28T14:13:10.240Z,37.70
2019-02-28T14:15:47.888Z,38.00
2019-02-28T14:18:15.310Z,38.10
2019-02-28T14:20:44.000Z,38.70
2019-02-28T14:23:12.758Z,38.60
2019-02-28T14:25:41.415Z,38.80
2019-02-28T14:28:10.071Z,39.00
2019-02-28T14:30:38.715Z,39.00
2019-02-28T14:33:07.842Z,39.10
2019-02-28T14:35:38.481Z,39.30
2019-02-28T14:38:06.702Z,39.90
2019-02-28T14:40:35.429Z,40.00
2019-02-28T14:43:04.569Z,40.50
2019-02-28T14:45:42.929Z,41.10
2019-02-28T14:48:11.273Z,41.10
2019-02-28T14:50:39.861Z,41.20
2019-02-28T14:53:13.060Z,41.10
2019-02-28T14:55:38.911Z,41.10
2019-02-28T14:58:07.552Z,41.10
2019-02-28T15:00:38.929Z,41.50
2019-02-28T15:03:06.572Z,41.70
2019-02-28T15:05:40.155Z,41.40
2019-02-28T15:08:11.790Z,41.60
2019-02-28T15:10:39.254Z,41.90
2019-02-28T15:13:07.936Z,41.80
2019-02-28T15:15:36.623Z,41.70
2019-02-28T15:18:05.751Z,41.90
2019-02-28T15:20:34.309Z,41.80
2019-02-28T15:23:02.887Z,41.70
2019-02-28T15:25:31.789Z,41.60
2019-02-28T15:28:00.514Z,41.80
2019-02-28T15:30:37.476Z,41.90
2019-02-28T15:33:06.177Z,41.80
2019-02-28T15:35:34.804Z,41.90
2019-02-28T15:38:05.837Z,42.40
2019-02-28T15:40:40.525Z,42.80
2019-02-28T15:43:09.522Z,42.90
2019-02-28T15:45:38.712Z,43.50
2019-02-28T15:48:08.320Z,43.00
2019-02-28T15:50:38.595Z,43.20
2019-02-28T15:53:11.299Z,43.40
2019-02-28T15:55:40.215Z,43.40
2019-02-28T15:58:10.769Z,43.50
2019-02-28T16:00:39.434Z,42.80
2019-02-28T16:03:09.535Z,43.10
2019-02-28T16:05:42.434Z,42.90
2019-02-28T16:08:10.491Z,42.80
2019-02-28T16:10:38.679Z,42.80
2019-02-28T16:13:07.687Z,43.30
2019-02-28T16:15:36.308Z,43.60
2019-02-28T16:18:05.421Z,44.10
2019-02-28T16:20:33.988Z,44.30
2019-02-28T16:23:02.630Z,44.50
2019-02-28T16:25:39.094Z,45.00
2019-02-28T16:28:08.878Z,44.90
2019-02-28T16:30:38.802Z,45.20
2019-02-28T16:33:07.597Z,45.30
2019-02-28T16:35:36.249Z,45.70
2019-02-28T16:38:06.556Z,46.00
2019-02-28T16:40:35.412Z,47.00
2019-02-28T16:43:04.171Z,47.70
2019-02-28T16:45:40.543Z,48.20
2019-02-28T16:48:08.164Z,49.10
2019-02-28T16:50:36.923Z,49.90
2019-02-28T16:53:05.693Z,50.60
2019-02-28T16:55:34.610Z,51.20
2019-02-28T16:58:03.244Z,52.00
2019-02-28T17:00:32.076Z,52.30
2019-02-28T17:03:00.661Z,52.80
2019-02-28T17:05:29.333Z,53.00
2019-02-28T17:07:57.969Z,53.10
2019-02-28T17:10:39.998Z,53.10
2019-02-28T17:13:14.853Z,53.60
2019-02-28T17:16:03.374Z,54.10
2019-02-28T17:18:36.338Z,54.40
2019-02-28T17:21:05.369Z,54.50
2019-02-28T17:23:36.878Z,54.80
2019-02-28T17:26:04.468Z,54.90
2019-02-28T17:28:37.145Z,55.10
2019-02-28T17:31:11.520Z,55.00
2019-02-28T17:33:43.294Z,55.40
2019-02-28T17:36:12.557Z,55.50
2019-02-28T17:38:41.289Z,55.70
2019-02-28T17:41:11.111Z,55.90
2019-02-28T17:43:40.099Z,56.10
2019-02-28T17:46:11.725Z,56.20
2019-02-28T17:48:45.404Z,57.10
2019-02-28T17:51:18.730Z,56.60
2019-02-28T17:53:58.827Z,57.10
2019-02-28T17:56:54.994Z,57.40
2019-02-28T17:59:29.695Z,57.60
2019-02-28T18:02:15.709Z,57.90
2019-02-28T18:05:06.897Z,58.30
2019-02-28T18:07:47.485Z,58.50
2019-02-28T18:10:21.122Z,58.60
2019-02-28T18:13:01.794Z,58.90
2019-02-28T18:15:52.364Z,59.00
2019-02-28T18:18:35.712Z,58.60
2019-02-28T18:21:37.474Z,58.50
2019-02-28T18:24:32.119Z,58.50
2019-02-28T18:27:21.974Z,58.60
2019-02-28T18:30:22.284Z,58.80
2019-02-28T18:32:50.964Z,59.00
2019-02-28T18:35:19.738Z,59.50
2019-02-28T18:37:48.300Z,59.90
2019-02-28T18:40:16.856Z,59.70
2019-02-28T18:42:45.440Z,60.10
2019-02-28T18:45:15.670Z,60.20
2019-02-28T18:47:44.429Z,60.60
2019-02-28T18:50:13.065Z,60.80
2019-02-28T18:52:41.669Z,61.10
2019-02-28T18:55:10.374Z,61.60
2019-02-28T18:57:38.992Z,63.10
2019-02-28T19:00:11.900Z,64.60
2019-02-28T19:02:40.520Z,66.30
2019-02-28T19:05:09.083Z,67.30
2019-02-28T19:07:37.753Z,68.20
2019-02-28T19:10:09.253Z,68.70
2019-02-28T19:12:37.825Z,69.30
2019-02-28T19:15:09.457Z,70.10
2019-02-28T19:17:38.020Z,70.60
2019-02-28T19:20:09.238Z,71.30
2019-02-28T19:22:38.174Z,72.50
2019-02-28T19:25:09.608Z,74.60
2019-02-28T19:27:38.170Z,74.40
2019-02-28T19:30:09.856Z,75.20
2019-02-28T19:32:38.413Z,76.30
2019-02-28T19:35:07.232Z,77.10
2019-02-28T19:37:35.805Z,78.00
2019-02-28T19:40:06.680Z,78.80
2019-02-28T19:42:35.563Z,79.50
2019-02-28T19:45:06.800Z,80.10
2019-02-28T19:47:35.429Z,80.50
2019-02-28T19:50:05.228Z,80.60
2019-02-28T19:52:33.833Z,80.70
2019-02-28T19:55:02.389Z,80.90
2019-02-28T19:57:30.969Z,81.40
2019-02-28T19:59:59.540Z,81.70
2019-02-28T20:02:28.163Z,81.80
2019-02-28T20:04:56.820Z,82.10
2019-02-28T20:07:28.189Z,82.90
2019-02-28T20:09:57.799Z,83.10
2019-02-28T20:12:26.370Z,83.50
2019-02-28T20:14:54.948Z,83.10
2019-02-28T20:17:23.540Z,83.10
2019-02-28T20:19:52.104Z,83.40
2019-02-28T20:22:20.677Z,83.50
2019-02-28T20:24:49.329Z,83.50
2019-02-28T20:27:17.887Z,83.20
2019-02-28T20:29:54.853Z,83.10
2019-02-28T20:32:18.558Z,82.70
2019-02-28T20:34:47.185Z,82.60
2019-02-28T20:37:15.801Z,82.70
2019-02-28T20:39:44.383Z,81.80
2019-02-28T20:42:12.949Z,81.90
2019-02-28T20:44:41.759Z,82.60
2019-02-28T20:47:12.011Z,79.80
2019-02-28T20:49:40.562Z,78.40
2019-02-28T20:52:09.135Z,77.70
2019-02-28T20:54:37.693Z,76.10
2019-02-28T20:57:06.828Z,75.20
2019-02-28T20:59:35.404Z,74.60
2019-02-28T21:02:04.263Z,73.90
2019-02-28T21:04:32.833Z,74.50
2019-02-28T21:07:01.492Z,74.20
2019-02-28T21:09:30.200Z,74.00
2019-02-28T21:11:58.918Z,74.10
2019-02-28T21:14:27.556Z,73.30
2019-02-28T21:16:56.208Z,73.30
2019-02-28T21:19:24.784Z,72.90
2019-02-28T21:21:53.369Z,74.20
2019-02-28T21:24:21.946Z,73.10
2019-02-28T21:26:50.544Z,73.00
2019-02-28T21:29:19.108Z,73.30
2019-02-28T21:31:47.744Z,72.50
2019-02-28T21:34:16.300Z,72.50
2019-02-28T21:36:45.158Z,72.30
2019-02-28T21:39:13.804Z,72.60
2019-02-28T21:41:42.361Z,72.70
2019-02-28T21:44:10.940Z,72.20
2019-02-28T21:46:39.496Z,73.10
2019-02-28T21:49:08.076Z,73.30
2019-02-28T21:51:36.693Z,73.30
2019-02-28T21:54:05.351Z,73.30
2019-02-28T21:56:33.893Z,73.30
2019-02-28T21:59:02.488Z,73.50
2019-02-28T22:01:31.044Z,74.90
2019-02-28T22:03:59.600Z,75.70
2019-02-28T22:06:28.341Z,76.10
2019-02-28T22:08:56.976Z,77.20
2019-02-28T22:11:25.557Z,77.90
2019-02-28T22:13:54.114Z,78.10
2019-02-28T22:16:22.689Z,78.80
2019-02-28T22:18:51.288Z,79.10
2019-02-28T22:21:19.939Z,79.90
2019-02-28T22:23:48.601Z,79.90
2019-02-28T22:26:17.464Z,79.70
2019-02-28T22:28:46.029Z,80.20
2019-02-28T22:31:25.032Z,80.90
2019-02-28T22:33:55.228Z,80.70
2019-02-28T22:36:28.140Z,81.00
2019-02-28T22:38:57.435Z,81.60
2019-02-28T22:41:26.005Z,81.60
2019-02-28T22:43:54.572Z,82.00
2019-02-28T22:46:23.344Z,81.70
2019-02-28T22:48:51.993Z,82.20
2019-02-28T22:51:20.900Z,83.60
2019-02-28T22:53:49.574Z,84.80
2019-02-28T22:56:18.481Z,85.80
2019-02-28T22:58:47.084Z,86.50
2019-02-28T23:01:18.973Z,86.70
2019-02-28T23:03:47.619Z,86.90
2019-02-28T23:06:16.342Z,87.70
2019-02-28T23:08:45.126Z,88.10
2019-02-28T23:11:13.664Z,87.20
2019-02-28T23:13:42.271Z,87.00
2019-02-28T23:16:11.426Z,87.90
2019-02-28T23:18:39.995Z,88.00
2019-02-28T23:21:08.638Z,87.20
2019-02-28T23:23:37.271Z,88.90
2019-02-28T23:26:08.171Z,89.70
2019-02-28T23:28:39.264Z,90.00
2019-02-28T23:31:28.993Z,90.20
2019-02-28T23:34:06.714Z,90.20
2019-02-28T23:36:35.453Z,90.20
2019-02-28T23:39:05.848Z,90.00
2019-02-28T23:41:34.392Z,90.60
2019-02-28T23:44:02.964Z,90.70
2019-02-28T23:46:31.548Z,90.50
2019-02-28T23:49:00.126Z,90.70
2019-02-28T23:51:28.699Z,90.40
2019-02-28T23:53:57.300Z,90.30
2019-02-28T23:56:25.856Z,90.20
2019-02-28T23:58:54.528Z,90.10
